Tiempo atmosférico en la estación meteorológica de Candelaria, Santa Cruz de Tenerife (463 m.)



Fecha
DESCASC
Temp. máxima en grados centígrados (hora)
DESCASC
Temp. mínima en grados centígrados (hora)
DESCASC
Temp. media en grados centígrados
DESCASC
Racha de viento máxima en m/sg (hora)
DESCASC
Velocidad máxima media en intervalos de 10 minutos(hora)
DESCASC
Precipitaciones diarias en mm
DESCASC
Precipitaciones de 00:00 a 06:00 en mm
DESCASC
Precipitaciones de 06:00 a 12:00 en mm
DESCASC
Precipitaciones de 12:00 a 18:00 en mm
DESCASC
Precipitaciones de 18:00 a 24:00 en mm
DESCASC
18-02-2018 15.9 (10:10) 9.9 (06:40) 12.9 8.33 (11:00) 5.28 (11:00) 0 0 0 0 0
17-02-2018 18.8 (14:00) 10.1 (07:20) 14.4 8.89 (14:30) 5 (11:40) 0 0 0 0 0
16-02-2018 19.4 (10:30) 13 (07:10) 16.2 6.11 (13:20) 4.44 (02:40) 0 0 0 0 0
15-02-2018 18.5 (12:40) 11.1 (00:00) 14.8 6.11 (04:30) 5 (04:40) 0 0 0 0 0
14-02-2018 17.1 (14:00) 8.5 (00:00) 12.8 5.83 (14:30) 3.89 (23:20) 0 0 0 0 0
13-02-2018 14.8 (14:30) 9.4 (00:00) 12.1 5 (11:10) 2.78 (02:50) 0 0 0 0 0
12-02-2018 16 (12:20) 9.6 (00:00) 12.8 8.61 (13:50) 6.39 (11:30) 0 0 0 0 0
11-02-2018 16.9 (12:00) 9.9 (00:00) 13.4 13.33 (10:50) 8.89 (12:40) 0 0 0 0 0
10-02-2018 19.8 (12:00) 11.4 (00:00) 15.6 15 (12:50) 8.61 (13:20) 0 0 0 0 0
09-02-2018 16.4 (13:10) 10.2 (00:00) 13.3 15.83 (01:00) 8.89 (11:40) 0 0 0 0 0
08-02-2018 13.3 (16:10) 8.3 (00:00) 10.8 21.67 (03:20) 9.72 (02:20) 9.8 8.4 1 0.4 0
07-02-2018 15 (14:40) 9.5 (00:00) 12.3 26.11 (22:50) 15.28 (17:00) 19.8 0.4 0.8 5.6 13
06-02-2018 16.5 (14:10) 10.2 (00:00) 13.3 16.67 (14:40) 5.56 (08:40) 0.8 0 0.8 0 0
05-02-2018 15.2 (16:20) 11.2 (00:00) 13.2 26.11 (14:30) 17.22 (14:50) 1.6 0 1.2 0.4 0
04-02-2018 19.2 (14:30) 11.6 (00:00) 15.4 20 (16:30) 10.83 (16:00) 0 0 0 0 0
03-02-2018 16.8 (12:30) 10.8 (00:00) 13.8 17.22 (09:00) 8.06 (02:00) 0.2 0.2 0 0 0
02-02-2018 16 (11:50) 11.6 (00:00) 13.8 13.61 (05:10) 7.78 (18:20) 2.6 1.4 0.8 0.2 0.2
01-02-2018 16.4 (14:20) 9.6 (00:00) 13 18.89 (11:40) 9.72 (04:40) 9.2 5.2 0 1.8 2.2
31-01-2018 15.1 (09:40) 10.2 (00:00) 12.7 18.06 (18:00) 10 (18:00) 28.6 0 0.8 9.2 18.6
30-01-2018 13.9 (10:50) 9.4 (00:00) 11.6 13.33 (10:50) 6.67 (15:40) 3.4 0 0.6 2.8 0
29-01-2018 13.6 (15:30) 9 (00:00) 11.3 16.67 (14:30) 9.72 (13:20) 28.6 0 11.8 13.2 3.6
28-01-2018 17.1 (13:00) 11.6 (00:00) 14.4 18.61 (13:50) 10.83 (00:30) 0.2 0 0 0.2 0
27-01-2018 16.3 (15:30) 11.5 (00:00) 13.9 17.5 (15:00) 10 (17:30) 0 0 0 0 0
26-01-2018 17.2 (12:20) 10.3 (00:00) 13.8 19.44 (14:00) 12.78 (13:30) 0.2 0 0.2 0 0
25-01-2018 16.8 (12:10) 9.5 (00:00) 13.1 9.17 (14:00) 6.39 (13:10) 0 0 0 0 0
24-01-2018 16.7 (12:30) 10 (00:00) 13.4 7.78 (11:40) 4.17 (11:40) 0 0 0 0 0
23-01-2018 17.2 (11:50) 10.5 (00:00) 13.9 6.67 (13:00) 4.17 (13:00) 0 0 0 0 0
22-01-2018 18.9 (09:50) 9.1 (00:00) 14 6.39 (06:40) 5.28 (06:40) 0 0 0 0 0

Gráficas

Temp. máximas Temp. mínimas Temp. medias Precipitaciones Rachas de viento máximas Velocidades máximas media en intervalos de 10 minutos

Datos horarios

Fecha y hora oficial Temperatura (ºC) Velocidad del viento (km/h) Dirección del viento Racha (km/h) Dirección de racha Precipitación (mm) Presión (hPa) Tendencia (hPa) Humedad (%)
2018-02-20 23:00:00 13.7 8 Oeste 20 Noroeste 0 -- -- 59
2018-02-20 22:00:00 13.9 13 Noroeste 30 Noroeste 0 -- -- 62
2018-02-20 21:00:00 14.1 9 Norte 29 Norte 0 -- -- 57
2018-02-20 20:00:00 14.1 23 Noroeste 40 Noroeste 0 -- -- 57
2018-02-20 19:00:00 14.4 7 Norte 26 Norte 0 -- -- 58
2018-02-20 18:00:00 14.5 12 Este 32 Sudeste 0 -- -- 62
2018-02-20 17:00:00 14.8 18 Este 32 Este 0 -- -- 64
2018-02-20 16:00:00 16.6 11 Nordeste 34 Noroeste 0 -- -- 59
2018-02-20 15:00:00 17.6 20 Norte 47 Noroeste 0 -- -- 52
2018-02-20 14:00:00 18.3 26 Noroeste 55 Noroeste 0 -- -- 45
2018-02-20 13:00:00 18.7 14 Norte 45 Noroeste 0 -- -- 44
2018-02-20 12:00:00 17.6 26 Noroeste 52 Noroeste 0 -- -- 44
2018-02-20 11:00:00 16.8 24 Noroeste 45 Noroeste 0 -- -- 49
2018-02-20 10:00:00 15.4 21 Noroeste 46 Noroeste 0 -- -- 53
2018-02-20 09:00:00 14.6 6 Sur 24 Oeste 0 -- -- 60
2018-02-20 08:00:00 12.9 12 Este 28 Nordeste 0 -- -- 65
2018-02-20 07:00:00 13.8 13 Nordeste 24 Nordeste 0 -- -- 61
2018-02-20 06:00:00 14.2 13 Norte 37 Nordeste 0 -- -- 57
2018-02-20 05:00:00 12.9 12 Noroeste 31 Noroeste 0 -- -- 53
2018-02-20 04:00:00 11.3 13 Norte 19 Noroeste 0 -- -- 70
2018-02-20 03:00:00 11.7 8 Oeste 15 Oeste 0 -- -- 74
2018-02-20 02:00:00 12.4 11 Oeste 22 Noroeste 0 -- -- 69
2018-02-20 01:00:00 12.7 6 Este 16 Oeste 0 -- -- 68
2018-02-20 00:00:00 12.3 10 Noroeste 16 Noroeste 0 -- -- 68
2018-02-19 23:00:00 13.2 10 Norte 21 Noroeste 0 -- -- 60
2018-02-19 22:00:00 12.8 10 Noroeste 27 Noroeste 0 -- -- 65
2018-02-19 21:00:00 14 21 Noroeste 44 Noroeste 0 -- -- 56
2018-02-19 20:00:00 14.4 19 Noroeste 47 Noroeste 0 -- -- 55
2018-02-19 19:00:00 14.7 25 Norte 50 Noroeste 0 -- -- 55
2018-02-19 18:00:00 15.6 7 Norte 46 Noroeste 0 -- -- 54
2018-02-19 17:00:00 16.1 18 Norte 46 Noroeste 0 -- -- 54
2018-02-19 16:00:00 17.6 22 Este 40 Este 0 -- -- 53
2018-02-19 15:00:00 18.6 10 Norte 36 Sudeste 0 -- -- 44
2018-02-19 14:00:00 17.7 8 Este 36 Norte 0 -- -- 44
2018-02-19 13:00:00 19.2 15 Sudeste 42 Norte 0 -- -- 37
2018-02-19 12:00:00 17.8 8 Oeste 34 Sudeste 0 -- -- 48
2018-02-19 11:00:00 16.4 14 Noroeste 30 Norte 0 -- -- 57
2018-02-19 10:00:00 15.1 13 Sudeste 23 Norte 0 -- -- 65
2018-02-19 09:00:00 12.8 10 Noroeste 13 Oeste 0 -- -- 70
2018-02-19 08:00:00 11.2 6 Oeste 12 Noroeste 0 -- -- 76
2018-02-19 07:00:00 10.7 3 Norte 13 Noroeste 0 -- -- 73
2018-02-19 06:00:00 11 8 Noroeste 17 Oeste 0 -- -- 65
2018-02-19 05:00:00 10.3 6 Noroeste 12 Oeste 0 -- -- 68
2018-02-19 04:00:00 10.2 7 Noroeste 16 Noroeste 0 -- -- 69
2018-02-19 03:00:00 11.1 5 Oeste 16 Oeste 0 -- -- 66
2018-02-19 02:00:00 9.9 10 Noroeste 14 Noroeste 0 -- -- 73
2018-02-19 01:00:00 10.8 6 Noroeste 17 Norte 0 -- -- 70
2018-02-19 00:00:00 12.1 8 Oeste 24 Noroeste 0 -- -- 69
2018-02-18 23:00:00 11.9 7 Sudoeste 27 Oeste 0 -- -- 69
2018-02-18 22:00:00 12.4 15 Oeste 27 Oeste 0 -- -- 72
2018-02-18 21:00:00 12.7 9 Noroeste 23 Noroeste 0 -- -- 62
2018-02-18 20:00:00 12.3 5 Oeste 17 Norte 0 -- -- 73
2018-02-18 19:00:00 12.2 8 Noroeste 12 Noroeste 0 -- -- 77
2018-02-18 18:00:00 14.3 9 Oeste 16 Oeste 0 -- -- 72
2018-02-18 17:00:00 14.2 6 Sudoeste 14 Sur 0 -- -- 74
2018-02-18 16:00:00 13.6 6 Sudeste 13 Sudeste 0 -- -- 75
2018-02-18 15:00:00 13.4 10 Sudeste 18 Este 0 -- -- 76
2018-02-18 14:00:00 13.9 12 Este 24 Este 0 -- -- 74
2018-02-18 13:00:00 14.4 13 Este 21 Este 0 -- -- 73
2018-02-18 12:00:00 14 13 Este 25 Este 0 -- -- 75
2018-02-18 11:00:00 15.3 19 Este 30 Este 0 -- -- 72
2018-02-18 10:00:00 15.6 14 Este 21 Este 0 -- -- 67
2018-02-18 09:00:00 13.4 3 Noroeste 13 Noroeste 0 -- -- 59
2018-02-18 08:00:00 10.1 8 Noroeste 17 Oeste 0 -- -- 73
2018-02-18 07:00:00 10.1 10 Noroeste 15 Oeste 0 -- -- 75
2018-02-18 06:00:00 10.4 9 Noroeste 16 Oeste 0 -- -- 75
2018-02-18 05:00:00 10.9 10 Oeste 15 Noroeste 0 -- -- 73
2018-02-18 04:00:00 11.2 6 Norte 14 Noroeste 0 -- -- 71
2018-02-18 03:00:00 10.7 9 Noroeste 14 Oeste 0 -- -- 74
2018-02-18 02:00:00 10.9 8 Oeste 12 Oeste 0 -- -- 77
2018-02-18 01:00:00 11.9 9 Oeste 18 Oeste 0 -- -- 78
2018-02-18 00:00:00 11.7 5 Noroeste 17 Oeste 0 -- -- 73
2018-02-17 23:00:00 11.8 8 Oeste 12 Oeste 0 -- -- 77
2018-02-17 22:00:00 12 8 Noroeste 14 Oeste 0 -- -- 76
2018-02-17 21:00:00 12.6 9 Oeste 17 Oeste 0 -- -- 74
2018-02-17 20:00:00 13.5 6 Oeste 15 Oeste 0 -- -- 73
2018-02-17 19:00:00 14.5 10 Oeste 18 Sudoeste 0 -- -- 70
2018-02-17 18:00:00 16.9 12 Sudoeste 19 Sudoeste 0 -- -- 59
2018-02-17 17:00:00 18.1 12 Sudoeste 26 Sudoeste 0 -- -- 56
2018-02-17 16:00:00 18.2 12 Sudoeste 23 Sudeste 0 -- -- 58
2018-02-17 15:00:00 17.3 12 Sudeste 32 Sur 0 -- -- 64
2018-02-17 14:00:00 18.8 11 Sur 27 Sur 0 -- -- 54
2018-02-17 13:00:00 18 17 Sudoeste 30 Oeste 0 -- -- 59
2018-02-17 12:00:00 17.5 15 Sudoeste 27 Sudoeste 0 -- -- 62
2018-02-17 11:00:00 17 12 Sudoeste 22 Sudoeste 0 -- -- 63
2018-02-17 10:00:00 16.1 11 Sudoeste 19 Sudoeste 0 -- -- 62
2018-02-17 09:00:00 14.6 5 Sudoeste 11 Noroeste 0 -- -- 64
2018-02-17 08:00:00 10.6 7 Noroeste 12 Noroeste 0 -- -- 70
2018-02-17 07:00:00 11 7 Noroeste 16 Noroeste 0 -- -- 66
2018-02-17 06:00:00 11.8 13 Oeste 17 Oeste 0 -- -- 66
2018-02-17 05:00:00 11.6 8 Noroeste 15 Norte 0 -- -- 48
2018-02-17 04:00:00 14.1 9 Norte 20 Norte 0 -- -- 56
2018-02-17 03:00:00 13.3 11 Noroeste 17 Norte 0 -- -- 42
2018-02-17 02:00:00 13.2 5 Oeste 16 Norte 0 -- -- 59
2018-02-17 01:00:00 15.1 10 Norte 20 Noroeste 0 -- -- 36
2018-02-17 00:00:00 14.3 14 Norte 19 Norte 0 -- -- 39
2018-02-16 23:00:00 15 6 Norte 20 Norte 0 -- -- 38
2018-02-16 22:00:00 14.1 11 Noroeste 16 Noroeste 0 -- -- 71
2018-02-16 21:00:00 15.1 13 Norte 20 Norte 0 -- -- 42
2018-02-16 20:00:00 15.7 11 Norte 20 Noroeste 0 -- -- 53
2018-02-16 19:00:00 16.8 8 Norte 12 Norte 0 -- -- 59
2018-02-16 18:00:00 18.2 3 Sur 7 Este 0 -- -- 60
2018-02-16 17:00:00 18.3 4 Sudeste 13 Este 0 -- -- 66
2018-02-16 16:00:00 18 9 Este 16 Sudeste 0 -- -- 70
2018-02-16 15:00:00 19.2 8 Este 15 Este 0 -- -- 68
2018-02-16 14:00:00 18.6 10 Sudeste 22 Sudeste 0 -- -- 71
2018-02-16 13:00:00 18.3 12 Este 20 Este 0 -- -- 73
2018-02-16 12:00:00 18.2 13 Este 19 Este 0 -- -- 71
2018-02-16 11:00:00 19.1 8 Sudeste 17 Sudeste 0 -- -- 59
2018-02-16 10:00:00 18.5 4 Sudeste 11 Sudeste 0 -- -- 45
2018-02-16 09:00:00 17.7 6 Este 21 Noroeste 0 -- -- 44
2018-02-16 08:00:00 13.7 14 Noroeste 21 Noroeste 0 -- -- 46
2018-02-16 07:00:00 13.3 9 Noroeste 14 Norte 0 -- -- 57
2018-02-16 06:00:00 15.4 13 Norte 15 Norte 0 -- -- 41
2018-02-16 05:00:00 15.2 11 Noroeste 15 Noroeste 0 -- -- 42
2018-02-16 04:00:00 15.7 8 Norte 17 Noroeste 0 -- -- 39
2018-02-16 03:00:00 15.5 15 Norte 20 Noroeste 0 -- -- 39
2018-02-16 02:00:00 15.9 6 Noroeste 14 Noroeste 0 -- -- 39
2018-02-16 01:00:00 16.7 9 Norte 18 Norte 0 -- -- 36
2018-02-16 00:00:00 16.1 15 Norte 21 Norte 0 -- -- 39
2018-02-15 23:00:00 14.8 9 Noroeste 18 Noroeste 0 -- -- 55
2018-02-15 22:00:00 14 5 Este 17 Noroeste 0 -- -- 86
2018-02-15 21:00:00 15.6 11 Noroeste 19 Noroeste 0 -- -- 49
2018-02-15 20:00:00 13.8 3 Oeste 16 Norte 0 -- -- 88
2018-02-15 19:00:00 14 5 Este 14 Sudeste 0 -- -- 89
2018-02-15 18:00:00 14.4 5 Nordeste 13 Este 0 -- -- 87
2018-02-15 17:00:00 15.3 9 Este 15 Este 0 -- -- 83
2018-02-15 16:00:00 16.5 9 Este 17 Este 0 -- -- 77
2018-02-15 15:00:00 16.5 9 Este 14 Este 0 -- -- 78
2018-02-15 14:00:00 16 7 Este 17 Sudeste 0 -- -- 78
2018-02-15 13:00:00 18.3 13 Este 19 Este 0 -- -- 71
2018-02-15 12:00:00 17.2 9 Este 17 Sudeste 0 -- -- 76
2018-02-15 11:00:00 16.2 10 Este 17 Este 0 -- -- 73
2018-02-15 10:00:00 17.5 12 Este 20 Este 0 -- -- 39
2018-02-15 09:00:00 14.3 10 Norte 21 Noroeste 0 -- -- 37
2018-02-15 08:00:00 13.1 15 Norte 19 Norte 0 -- -- 39
2018-02-15 07:00:00 13.2 12 Norte 20 Nordeste 0 -- -- 42
2018-02-15 06:00:00 12.8 15 Noroeste 19 Noroeste 0 -- -- 43
2018-02-15 05:00:00 13.1 15 Norte 22 Noroeste 0 -- -- 42
2018-02-15 04:00:00 12.6 16 Noroeste 21 Norte 0 -- -- 43
2018-02-15 03:00:00 12.1 15 Noroeste 19 Noroeste 0 -- -- 45
2018-02-15 02:00:00 11.1 12 Noroeste 15 Noroeste 0 -- -- 48
2018-02-15 01:00:00 12.1 11 Norte 17 Norte 0 -- -- 43
2018-02-15 00:00:00 13 6 Norte 19 Norte 0 -- -- 43
2018-02-14 23:00:00 11.8 10 Norte 14 Noroeste 0 -- -- 48
2018-02-14 22:00:00 11.4 2 Oeste 11 Noroeste 0 -- -- 60
2018-02-14 21:00:00 11.7 5 Noroeste 10 Noroeste 0 -- -- 70
2018-02-14 20:00:00 12.6 0 Calma 4 Este 0 -- -- 91
2018-02-14 19:00:00 13.3 0 Calma 8 Este 0 -- -- 91
2018-02-14 18:00:00 14.2 5 Este 15 Sudeste 0 -- -- 87
2018-02-14 17:00:00 15.5 8 Este 15 Este 0 -- -- 80
2018-02-14 16:00:00 16 7 Sudeste 19 Sudeste 0 -- -- 75
2018-02-14 15:00:00 16.6 10 Este 21 Sudeste 0 -- -- 73
2018-02-14 14:00:00 17.1 11 Este 18 Este 0 -- -- 70
2018-02-14 13:00:00 16.7 10 Este 19 Sudeste 0 -- -- 72
2018-02-14 12:00:00 16.7 9 Este 16 Sudeste 0 -- -- 71
2018-02-14 11:00:00 15.7 6 Este 15 Sudeste 0 -- -- 75
2018-02-14 10:00:00 14.4 7 Sudeste 15 Este 0 -- -- 75
2018-02-14 09:00:00 12.3 8 Nordeste 14 Este 0 -- -- 88
2018-02-14 08:00:00 9.5 7 Norte 12 Norte 0 -- -- 89
2018-02-14 07:00:00 9.5 5 Norte 12 Noroeste 0 -- -- 90
2018-02-14 06:00:00 9.1 4 Noroeste 11 Norte 0 -- -- 91
2018-02-14 05:00:00 8.8 8 Noroeste 13 Noroeste 0 -- -- 92
2018-02-14 04:00:00 9 4 Norte 8 Noroeste 0 -- -- 91
2018-02-14 03:00:00 8.5 0 Calma 9 Noroeste 0 -- -- 85
2018-02-14 02:00:00 9.7 3 Norte 12 Norte 0 -- -- 85
2018-02-14 01:00:00 11.4 9 Norte 16 Norte 0 -- -- 61
2018-02-14 00:00:00 9.8 3 Noroeste 6 Noroeste 0 -- -- 77
2018-02-13 23:00:00 9.7 2 Nordeste 9 Noroeste 0 -- -- 89
2018-02-13 22:00:00 10 3 Norte 10 Noroeste 0 -- -- 88
2018-02-13 21:00:00 10.4 6 Noroeste 8 Noroeste 0 -- -- 89
2018-02-13 20:00:00 10.7 5 Norte 9 Noroeste 0 -- -- 86
2018-02-13 19:00:00 12.7 3 Este 10 Este 0 -- -- 87
2018-02-13 18:00:00 13.3 6 Este 13 Sudeste 0 -- -- 85
2018-02-13 17:00:00 13.7 8 Sudeste 14 Este 0 -- -- 81
2018-02-13 16:00:00 14.3 10 Este 15 Este 0 -- -- 75
2018-02-13 15:00:00 14.6 7 Este 16 Sudeste 0 -- -- 73
2018-02-13 14:00:00 14.5 8 Este 13 Este 0 -- -- 76
2018-02-13 13:00:00 13.5 6 Sudeste 14 Sudeste 0 -- -- 78
2018-02-13 12:00:00 13.9 7 Sudeste 18 Este 0 -- -- 75
2018-02-13 11:00:00 13.7 8 Este 14 Este 0 -- -- 78
2018-02-13 10:00:00 12.9 7 Este 13 Nordeste 0 -- -- 81
2018-02-13 09:00:00 12.5 7 Nordeste 12 Nordeste 0 -- -- 82
2018-02-13 08:00:00 12.2 4 Nordeste 13 Nordeste 0 -- -- 81
2018-02-13 07:00:00 12.1 6 Nordeste 12 Nordeste 0 -- -- 84
2018-02-13 06:00:00 12.1 9 Este 13 Este 0 -- -- 84
2018-02-13 05:00:00 11.3 5 Norte 9 Este 0 -- -- 76
2018-02-13 04:00:00 12.2 3 Nordeste 12 Norte 0 -- -- 73
2018-02-13 03:00:00 12.4 9 Norte 13 Noroeste 0 -- -- 66
2018-02-13 02:00:00 12.5 0 Calma 8 Norte 0 -- -- 72
2018-02-13 01:00:00 12.4 0 Calma 13 Norte 0 -- -- 71
2018-02-13 00:00:00 12.4 6 Norte 18 Norte 0 -- -- 66
2018-02-12 23:00:00 12.2 5 Noroeste 14 Norte 0 -- -- 69
2018-02-12 22:00:00 12.7 10 Este 18 Este 0 -- -- 70
2018-02-12 21:00:00 12.7 14 Nordeste 30 Nordeste 0 -- -- 66
2018-02-12 20:00:00 12.4 13 Este 27 Este 0 -- -- 71
2018-02-12 19:00:00 12.7 12 Este 19 Este 0 -- -- 78
2018-02-12 18:00:00 12.9 13 Este 19 Este 0 -- -- 78
2018-02-12 17:00:00 13.2 12 Este 22 Este 0 -- -- 76
2018-02-12 16:00:00 13.7 15 Este 24 Este 0 -- -- 72
2018-02-12 15:00:00 14.2 17 Este 26 Este 0 -- -- 70
2018-02-12 14:00:00 14.7 18 Este 31 Este 0 -- -- 69
2018-02-12 13:00:00 15.7 21 Este 29 Este 0 -- -- 68
2018-02-12 12:00:00 15.5 20 Este 30 Este 0 -- -- 67
2018-02-12 11:00:00 14.4 17 Este 28 Este 0 -- -- 70
2018-02-12 10:00:00 13.2 12 Nordeste 22 Este 0 -- -- 76
2018-02-12 09:00:00 11.8 6 Nordeste 15 Nordeste 0 -- -- 84
2018-02-12 08:00:00 12.7 8 Norte 25 Norte 0 -- -- 73
2018-02-12 07:00:00 11.1 13 Noroeste 19 Norte 0 -- -- 72
2018-02-12 06:00:00 10 10 Noroeste 17 Noroeste 0 -- -- 77
2018-02-12 05:00:00 10.1 11 Norte 17 Noroeste 0 -- -- 73
2018-02-12 04:00:00 10.2 14 Noroeste 16 Noroeste 0 -- -- 76
2018-02-12 03:00:00 10.7 12 Oeste 19 Oeste 0 -- -- 74
2018-02-12 02:00:00 10.5 13 Noroeste 21 Noroeste 0 -- -- 72
2018-02-12 01:00:00 10.5 12 Noroeste 17 Noroeste 0 -- -- 72
2018-02-12 00:00:00 10.7 12 Noroeste 17 Oeste 0 -- -- 71
2018-02-11 23:00:00 10.6 8 Noroeste 18 Oeste 0 -- -- 72
2018-02-11 22:00:00 10.7 10 Noroeste 14 Oeste 0 -- -- 71
2018-02-11 21:00:00 11.3 9 Noroeste 15 Oeste 0 -- -- 71
2018-02-11 20:00:00 12.2 9 Oeste 18 Oeste 0 -- -- 69
2018-02-11 19:00:00 13.1 11 Oeste 17 Oeste 0 -- -- 69
2018-02-11 18:00:00 14.8 3 Oeste 34 Este 0 -- -- 63
2018-02-11 17:00:00 15.8 14 Este 39 Este 0 -- -- 55
2018-02-11 16:00:00 15.7 24 Sudeste 39 Este 0 -- -- 57
2018-02-11 15:00:00 15.9 23 Este 40 Este 0 -- -- 60
2018-02-11 14:00:00 16.5 26 Este 44 Este 0 -- -- 62
2018-02-11 13:00:00 16.2 30 Este 45 Este 0 -- -- 63
2018-02-11 12:00:00 16.9 29 Este 46 Este 0 -- -- 57
2018-02-11 11:00:00 15.7 32 Este 48 Este 0 -- -- 55
2018-02-11 10:00:00 15.1 9 Nordeste 30 Este 0 -- -- 58
2018-02-11 09:00:00 13.6 8 Oeste 18 Oeste 0 -- -- 63
2018-02-11 08:00:00 9.9 9 Noroeste 20 Oeste 0 -- -- 68
2018-02-11 07:00:00 11.3 10 Noroeste 38 Nordeste 0 -- -- 65
2018-02-11 06:00:00 10.1 12 Noroeste 30 Este 0 -- -- 71
2018-02-11 05:00:00 11.5 15 Este 35 Sudeste 0 -- -- 66
2018-02-11 04:00:00 11.2 12 Oeste 19 Oeste 0 -- -- 67
2018-02-11 03:00:00 10.5 9 Noroeste 17 Noroeste 0 -- -- 71
2018-02-11 02:00:00 10.3 13 Noroeste 17 Noroeste 0 -- -- 76
2018-02-11 01:00:00 11.1 10 Oeste 21 Oeste 0 -- -- 75
2018-02-11 00:00:00 11.5 13 Oeste 23 Oeste 0 -- -- 75
2018-02-10 23:00:00 12.3 14 Oeste 30 Nordeste 0 -- -- 70
2018-02-10 22:00:00 13.8 21 Este 36 Este 0 -- -- 65
2018-02-10 21:00:00 14.2 17 Este 30 Este 0 -- -- 68
2018-02-10 20:00:00 13.3 15 Este 41 Nordeste 0 -- -- 82
2018-02-10 19:00:00 14.7 17 Este 30 Este 0 -- -- 63
2018-02-10 18:00:00 15.3 14 Este 51 Noroeste 0 -- -- 62
2018-02-10 17:00:00 18.3 12 Norte 52 Noroeste 0 -- -- 50
2018-02-10 16:00:00 18.7 27 Noroeste 53 Noroeste 0 -- -- 42
2018-02-10 15:00:00 19.6 23 Noroeste 51 Noroeste 0 -- -- 46
2018-02-10 14:00:00 19.3 10 Noroeste 54 Norte 0 -- -- 42
2018-02-10 13:00:00 18.4 30 Norte 54 Norte 0 -- -- 49
2018-02-10 12:00:00 19.8 7 Sur 41 Norte 0 -- -- 42
2018-02-10 11:00:00 17.6 13 Norte 43 Noroeste 0 -- -- 52
2018-02-10 10:00:00 16.7 10 Sudeste 38 Sudeste 0 -- -- 55
2018-02-10 09:00:00 15.3 14 Norte 36 Norte 0 -- -- 58
2018-02-10 08:00:00 13.4 13 Sur 33 Sur 0 -- -- 62
2018-02-10 07:00:00 12.5 8 Norte 22 Sur 0 -- -- 70
2018-02-10 06:00:00 12.1 5 Norte 16 Oeste 0 -- -- 71
2018-02-10 05:00:00 12.9 10 Norte 28 Norte 0 -- -- 65
2018-02-10 04:00:00 12.3 5 Norte 21 Norte 0 -- -- 67
2018-02-10 03:00:00 11.6 14 Oeste 24 Oeste 0 -- -- 72
2018-02-10 02:00:00 12 6 Noroeste 18 Oeste 0 -- -- 68
2018-02-10 01:00:00 12.4 4 Sudoeste 18 Este 0 -- -- 71
2018-02-10 00:00:00 12.8 6 Este 21 Este 0 -- -- 71
2018-02-09 23:00:00 12 3 Norte 18 Este 0 -- -- 69
2018-02-09 22:00:00 11.9 8 Oeste 26 Este 0 -- -- 73
2018-02-09 21:00:00 12.3 10 Este 30 Este 0 -- -- 71
2018-02-09 20:00:00 12.8 6 Sudeste 21 Sudeste 0 -- -- 67
2018-02-09 19:00:00 13 10 Noroeste 33 Este 0 -- -- 64
2018-02-09 18:00:00 13.8 15 Este 54 Este 0 -- -- 62
2018-02-09 17:00:00 14.9 25 Este 50 Este 0 -- -- 57
2018-02-09 16:00:00 15.6 18 Este 44 Este 0 -- -- 55
2018-02-09 15:00:00 15.8 16 Este 41 Este 0 -- -- 54
2018-02-09 14:00:00 15.9 21 Este 48 Este 0 -- -- 56
2018-02-09 13:00:00 16.3 24 Este 50 Este 0 -- -- 57
2018-02-09 12:00:00 15.9 24 Este 55 Este 0 -- -- 56
2018-02-09 11:00:00 15 22 Este 48 Este 0 -- -- 58
2018-02-09 10:00:00 13.1 19 Este 46 Este 0 -- -- 66
2018-02-09 09:00:00 11.6 25 Este 57 Este 0 -- -- 74
2018-02-09 08:00:00 11.8 18 Este 39 Este 0 -- -- 68
2018-02-09 07:00:00 11.3 17 Este 41 Este 0 -- -- 71
2018-02-09 06:00:00 11 18 Este 40 Este 0 -- -- 71
2018-02-09 05:00:00 11.1 9 Sudoeste 54 Este 0 -- -- 65
2018-02-09 04:00:00 11.5 21 Sudeste 44 Este 0 -- -- 58
2018-02-09 03:00:00 11.5 8 Sudeste 41 Este 0 -- -- 62
2018-02-09 02:00:00 11.7 13 Nordeste 42 Nordeste 0 -- -- 64
2018-02-09 01:00:00 10.8 27 Nordeste 57 Nordeste 0 -- -- 67
2018-02-09 00:00:00 10.2 18 Este 45 Este 0 -- -- 81
2018-02-08 23:00:00 10.9 18 Este 46 Este 0 -- -- 72
2018-02-08 22:00:00 11.3 21 Este 41 Este 0 -- -- 68
2018-02-08 21:00:00 11.5 15 Este 49 Este 0 -- -- 59
2018-02-08 20:00:00 11.4 16 Sur 46 Nordeste 0 -- -- 57
2018-02-08 19:00:00 11.4 7 Sudoeste 35 Norte 0 -- -- 69
2018-02-08 18:00:00 12 6 Sudoeste 39 Norte 0 -- -- 60
2018-02-08 17:00:00 12.6 10 Nordeste 43 Norte 0 -- -- 63
2018-02-08 16:00:00 13.2 21 Nordeste 57 Noroeste 0 -- -- 57
2018-02-08 15:00:00 12.7 13 Este 54 Noroeste 0 -- -- 55
2018-02-08 14:00:00 11.9 10 Sudoeste 33 Norte 0.2 -- -- 71
2018-02-08 13:00:00 12.6 16 Nordeste 51 Este 0.2 -- -- 60
2018-02-08 12:00:00 13 8 Norte 66 Norte 0 -- -- 59
2018-02-08 11:00:00 12.6 17 Este 55 Nordeste 0 -- -- 56
2018-02-08 10:00:00 11.2 10 Sudeste 57 Este 0 -- -- 64
2018-02-08 09:00:00 9.3 22 Nordeste 64 Nordeste 1 -- -- 75
2018-02-08 08:00:00 10.1 23 Nordeste 62 Nordeste 0 -- -- 64
2018-02-08 07:00:00 10 20 Nordeste 54 Este 0 -- -- 61
2018-02-08 06:00:00 9.3 11 Sur 66 Nordeste 0.8 -- -- 69
2018-02-08 05:00:00 8.6 15 Este 62 Nordeste 1.4 -- -- 77
2018-02-08 04:00:00 9.8 22 Este 78 Este 0.2 -- -- 67
2018-02-08 03:00:00 9.3 17 Este 77 Nordeste 1.4 -- -- 76
2018-02-08 02:00:00 8.9 21 Nordeste 65 Nordeste 4.6 -- -- 83
2018-02-08 01:00:00 10.7 15 Sur 76 Nordeste 0 -- -- 62
2018-02-08 00:00:00 11 21 Este 69 Nordeste 0 -- -- 56
2018-02-07 23:00:00 11 36 Nordeste 94 Nordeste 0.2 -- -- 64
2018-02-07 22:00:00 10.3 19 Nordeste 67 Norte 0.6 -- -- 78
2018-02-07 21:00:00 9.5 24 Nordeste 73 Nordeste 6.8 -- -- 89
2018-02-07 20:00:00 10.5 21 Norte 59 Norte 5.4 -- -- 75
2018-02-07 19:00:00 11.6 37 Norte 80 Norte 0 -- -- 66
2018-02-07 18:00:00 11.2 42 Norte 84 Norte 4 -- -- 78
2018-02-07 17:00:00 13.4 55 Norte 82 Norte 0 -- -- 57
2018-02-07 16:00:00 13.6 48 Norte 82 Noroeste 1 -- -- 60
2018-02-07 15:00:00 13.9 42 Noroeste 78 Noroeste 0.4 -- -- 63
2018-02-07 14:00:00 14.2 43 Norte 67 Norte 0.2 -- -- 59
2018-02-07 13:00:00 13.1 19 Noroeste 48 Noroeste 0 -- -- 69
2018-02-07 12:00:00 13.6 10 Noroeste 41 Noroeste 0 -- -- 61
2018-02-07 11:00:00 12.7 13 Oeste 50 Noroeste 0 -- -- 61
2018-02-07 10:00:00 13.2 5 Nordeste 35 Norte 0 -- -- 58
2018-02-07 09:00:00 13.3 12 Norte 43 Norte 0 -- -- 55
2018-02-07 08:00:00 11.7 15 Norte 42 Oeste 0 -- -- 58
2018-02-07 07:00:00 11.2 13 Norte 36 Noroeste 0.8 -- -- 66
2018-02-07 06:00:00 11.3 3 Oeste 27 Norte 0.4 -- -- 72
2018-02-07 05:00:00 11.4 13 Noroeste 24 Norte 0 -- -- 66
2018-02-07 04:00:00 11.2 9 Oeste 21 Noroeste 0 -- -- 68
2018-02-07 03:00:00 11 6 Sudoeste 26 Nordeste 0 -- -- 71
2018-02-07 02:00:00 11.1 13 Sudeste 36 Sudeste 0 -- -- 73
2018-02-07 01:00:00 11.6 7 Noroeste 22 Sudeste 0 -- -- 65
2018-02-07 00:00:00 11.4 9 Sudoeste 30 Nordeste 0 -- -- 67
2018-02-06 23:00:00 11.7 20 Norte 40 Norte 0 -- -- 67
2018-02-06 22:00:00 12.4 7 Oeste 35 Noroeste 0 -- -- 57
2018-02-06 21:00:00 12.1 9 Sur 26 Sur 0 -- -- 62
2018-02-06 20:00:00 12.5 9 Oeste 23 Sur 0 -- -- 58
2018-02-06 19:00:00 12.2 17 Este 31 Este 0 -- -- 58
2018-02-06 18:00:00 13.4 10 Sur 35 Sudeste 0 -- -- 55
2018-02-06 17:00:00 13.2 9 Este 30 Sudeste 0 -- -- 56
2018-02-06 16:00:00 14.4 8 Sur 32 Sur 0 -- -- 48
2018-02-06 15:00:00 13.6 14 Este 60 Norte 0 -- -- 52
2018-02-06 14:00:00 16.4 12 Sur 46 Noroeste 0 -- -- 46
2018-02-06 13:00:00 15.2 8 Oeste 55 Noroeste 0 -- -- 46
2018-02-06 12:00:00 14.2 13 Norte 36 Norte 0 -- -- 50
2018-02-06 11:00:00 14 14 Sur 39 Norte 0 -- -- 50
2018-02-06 10:00:00 13.3 10 Oeste 44 Noroeste 0 -- -- 52
2018-02-06 09:00:00 12.8 15 Noroeste 47 Noroeste 0 -- -- 57
2018-02-06 08:00:00 10.5 10 Sudoeste 28 Noroeste 0.2 -- -- 80
2018-02-06 07:00:00 10.5 6 Sudoeste 20 Sudoeste 0.6 -- -- 81
2018-02-06 06:00:00 11.3 7 Oeste 26 Sudoeste 0 -- -- 68
2018-02-06 05:00:00 11.8 11 Sudoeste 29 Oeste 0 -- -- 66
2018-02-06 04:00:00 11.7 12 Sudeste 43 Sudeste 0 -- -- 69
2018-02-06 03:00:00 12.4 13 Sudoeste 29 Oeste 0 -- -- 57
2018-02-06 02:00:00 12 9 Sur 34 Este 0 -- -- 55
2018-02-06 01:00:00 12.1 10 Nordeste 23 Sudeste 0 -- -- 52
2018-02-06 00:00:00 12.3 9 Noroeste 40 Norte 0 -- -- 55
2018-02-05 23:00:00 12.1 17 Nordeste 43 Norte 0 -- -- 55
2018-02-05 22:00:00 12 19 Norte 46 Noroeste 0 -- -- 61
2018-02-05 21:00:00 12.1 21 Norte 52 Norte 0 -- -- 56
2018-02-05 20:00:00 11.8 25 Norte 51 Norte 0 -- -- 56
2018-02-05 19:00:00 12.2 23 Norte 49 Norte 0 -- -- 54
2018-02-05 18:00:00 12.9 28 Norte 48 Norte 0 -- -- 59
2018-02-05 17:00:00 14.7 31 Norte 81 Norte 0 -- -- 46
2018-02-05 16:00:00 14.9 42 Norte 90 Norte 0 -- -- 46
2018-02-05 15:00:00 14.2 56 Norte 94 Norte 0 -- -- 52
2018-02-05 14:00:00 13 54 Noroeste 77 Noroeste 0.4 -- -- 71
2018-02-05 13:00:00 14.4 23 Norte 52 Noroeste 0 -- -- 56
2018-02-05 12:00:00 14 17 Norte 58 Norte 0 -- -- 56
2018-02-05 11:00:00 13.6 8 Sudeste 26 Este 0 -- -- 63
2018-02-05 10:00:00 12.7 8 Sudeste 34 Sur 0.2 -- -- 76
2018-02-05 09:00:00 12.2 6 Noroeste 28 Noroeste 0.2 -- -- 80
2018-02-05 08:00:00 11.2 7 Sur 22 Noroeste 0.6 -- -- 84
2018-02-05 07:00:00 11.4 4 Noroeste 29 Oeste 0.2 -- -- 77
2018-02-05 06:00:00 13 9 Oeste 27 Noroeste 0 -- -- 54
2018-02-05 05:00:00 13.1 19 Oeste 37 Noroeste 0 -- -- 52
2018-02-05 04:00:00 13 4 Este 39 Noroeste 0 -- -- 51
2018-02-05 03:00:00 12.7 8 Sudoeste 40 Este 0 -- -- 53
2018-02-05 02:00:00 13.1 18 Noroeste 45 Noroeste 0 -- -- 56
2018-02-05 01:00:00 13.3 9 Noroeste 45 Norte 0 -- -- 58
2018-02-05 00:00:00 13.2 15 Norte 54 Noroeste 0 -- -- 62
2018-02-04 23:00:00 13.2 18 Norte 51 Noroeste 0 -- -- 64
2018-02-04 22:00:00 13.5 14 Norte 44 Norte 0 -- -- 59
2018-02-04 21:00:00 13.5 22 Noroeste 48 Noroeste 0 -- -- 64
2018-02-04 20:00:00 14.3 20 Oeste 54 Noroeste 0 -- -- 61
2018-02-04 19:00:00 14.2 24 Noroeste 64 Noroeste 0 -- -- 57
2018-02-04 18:00:00 14.9 22 Noroeste 67 Norte 0 -- -- 55
2018-02-04 17:00:00 16.3 28 Noroeste 72 Noroeste 0 -- -- 51
2018-02-04 16:00:00 17 39 Noroeste 62 Noroeste 0 -- -- 48
2018-02-04 15:00:00 18.1 15 Sudeste 38 Sudeste 0 -- -- 44
2018-02-04 14:00:00 18.9 10 Noroeste 60 Noroeste 0 -- -- 37
2018-02-04 13:00:00 18.4 11 Noroeste 46 Noroeste 0 -- -- 42
2018-02-04 12:00:00 17.3 13 Este 37 Este 0 -- -- 49
2018-02-04 11:00:00 16.1 16 Este 39 Este 0 -- -- 55
2018-02-04 10:00:00 15 23 Este 49 Sudeste 0 -- -- 60
2018-02-04 09:00:00 13.3 17 Este 54 Este 0 -- -- 64
2018-02-04 08:00:00 12.1 16 Este 44 Este 0 -- -- 68
2018-02-04 07:00:00 12 24 Este 45 Este 0 -- -- 72
2018-02-04 06:00:00 12.1 31 Este 51 Este 0 -- -- 74
2018-02-04 05:00:00 12 24 Este 54 Este 0 -- -- 77
2018-02-04 04:00:00 12.2 17 Este 46 Nordeste 0 -- -- 73
2018-02-04 03:00:00 12.5 22 Este 46 Este 0 -- -- 65
2018-02-04 02:00:00 12.8 15 Este 41 Este 0 -- -- 65
2018-02-04 01:00:00 12.6 9 Norte 44 Nordeste 0 -- -- 66
2018-02-04 00:00:00 12.3 6 Este 37 Sudeste 0 -- -- 68
2018-02-03 23:00:00 12.5 19 Norte 57 Noroeste 0 -- -- 62
2018-02-03 22:00:00 12.5 13 Sudeste 35 Sudeste 0 -- -- 66
2018-02-03 21:00:00 13 16 Sur 42 Sur 0 -- -- 64
2018-02-03 20:00:00 13.1 15 Sudoeste 48 Noroeste 0 -- -- 68
2018-02-03 19:00:00 14 26 Noroeste 51 Noroeste 0 -- -- 62
2018-02-03 18:00:00 15.2 13 Oeste 50 Noroeste 0 -- -- 49
2018-02-03 17:00:00 15.7 14 Sudoeste 45 Sudeste 0 -- -- 55
2018-02-03 16:00:00 16.6 11 Sur 48 Este 0 -- -- 52
2018-02-03 15:00:00 16.1 21 Este 55 Este 0 -- -- 56
2018-02-03 14:00:00 16.5 11 Nordeste 51 Oeste 0 -- -- 60
2018-02-03 13:00:00 16.2 21 Noroeste 55 Noroeste 0 -- -- 55
2018-02-03 12:00:00 16.1 16 Nordeste 55 Oeste 0 -- -- 45
2018-02-03 11:00:00 14.9 14 Nordeste 44 Este 0 -- -- 60
2018-02-03 10:00:00 13.3 9 Este 44 Este 0 -- -- 67
2018-02-03 09:00:00 12.2 29 Este 62 Este 0 -- -- 73
2018-02-03 08:00:00 12.1 18 Este 37 Este 0 -- -- 73
2018-02-03 07:00:00 12.4 12 Sudoeste 46 Este 0 -- -- 66
2018-02-03 06:00:00 12.5 15 Este 36 Sudeste 0 -- -- 67
2018-02-03 05:00:00 12.3 17 Sudeste 42 Sudeste 0 -- -- 71
2018-02-03 04:00:00 11.7 19 Este 41 Este 0 -- -- 73
2018-02-03 03:00:00 12.3 12 Sur 50 Este 0 -- -- 73
2018-02-03 02:00:00 11.6 29 Este 57 Nordeste 0.2 -- -- 79
2018-02-03 01:00:00 10.8 26 Este 52 Este 0 -- -- 85
2018-02-03 00:00:00 11.9 18 Este 40 Este 0 -- -- 74
2018-02-02 23:00:00 12.1 15 Este 38 Este 0 -- -- 74
2018-02-02 22:00:00 12.8 8 Sur 35 Este 0 -- -- 71
2018-02-02 21:00:00 12.7 18 Este 40 Este 0 -- -- 68
2018-02-02 20:00:00 12.9 10 Este 40 Sudeste 0.2 -- -- 66
2018-02-02 19:00:00 12.4 20 Este 49 Este 0 -- -- 76
2018-02-02 18:00:00 13.7 18 Sudeste 43 Este 0 -- -- 69
2018-02-02 17:00:00 14.2 21 Este 39 Este 0 -- -- 69
2018-02-02 16:00:00 14.6 25 Este 48 Este 0 -- -- 65
2018-02-02 15:00:00 15 15 Sudeste 43 Sudeste 0 -- -- 61
2018-02-02 14:00:00 15.2 19 Este 48 Este 0 -- -- 67
2018-02-02 13:00:00 14.7 26 Este 47 Este 0.2 -- -- 77
2018-02-02 12:00:00 16 18 Este 35 Este 0 -- -- 70
2018-02-02 11:00:00 14.4 13 Este 48 Nordeste 0 -- -- 77
2018-02-02 10:00:00 14 10 Este 40 Este 0.2 -- -- 81
2018-02-02 09:00:00 13.2 6 Nordeste 35 Norte 0.4 -- -- 73
2018-02-02 08:00:00 11.7 8 Sudoeste 36 Sur 0.2 -- -- 76
2018-02-02 07:00:00 11.8 8 Sudoeste 21 Oeste 0 -- -- 75
2018-02-02 06:00:00 12.3 4 Este 49 Nordeste 0 -- -- 78
2018-02-02 05:00:00 12.2 17 Norte 45 Norte 0.6 -- -- 76
2018-02-02 04:00:00 13 9 Noroeste 36 Nordeste 0 -- -- 60
2018-02-02 03:00:00 13 7 Noroeste 35 Norte 0 -- -- 64
2018-02-02 02:00:00 12.9 12 Norte 41 Norte 0 -- -- 63
2018-02-02 01:00:00 13 22 Norte 45 Nordeste 0.8 -- -- 70
2018-02-02 00:00:00 13.3 23 Nordeste 51 Nordeste 0.6 -- -- 69
2018-02-01 23:00:00 13.5 24 Norte 58 Nordeste 0 -- -- 63
2018-02-01 22:00:00 13.6 27 Norte 63 Norte 0 -- -- 62
2018-02-01 21:00:00 13 32 Norte 63 Norte 0.6 -- -- 65
2018-02-01 20:00:00 12.6 25 Nordeste 49 Norte 1 -- -- 71
2018-02-01 19:00:00 13.1 5 Nordeste 35 Nordeste 0 -- -- 64
2018-02-01 18:00:00 13.1 21 Norte 55 Nordeste 0.8 -- -- 67
2018-02-01 17:00:00 13.3 19 Norte 45 Norte 0.8 -- -- 67
2018-02-01 16:00:00 15 15 Sudoeste 39 Norte 0 -- -- 55
2018-02-01 15:00:00 15.9 18 Norte 51 Nordeste 0 -- -- 51
2018-02-01 14:00:00 16.3 17 Nordeste 53 Norte 0 -- -- 50
2018-02-01 13:00:00 15.7 25 Nordeste 49 Norte 0.2 -- -- 51
2018-02-01 12:00:00 14.2 24 Norte 68 Norte 0 -- -- 56
2018-02-01 11:00:00 15.4 19 Norte 57 Nordeste 0 -- -- 49
2018-02-01 10:00:00 14.3 23 Nordeste 62 Noroeste 0 -- -- 53
2018-02-01 09:00:00 13.4 22 Norte 59 Nordeste 0 -- -- 52
2018-02-01 08:00:00 12.2 15 Norte 43 Norte 0 -- -- 60
2018-02-01 07:00:00 12.1 19 Norte 46 Norte 0 -- -- 59
2018-02-01 06:00:00 11 25 Norte 62 Norte 0.2 -- -- 84
2018-02-01 05:00:00 9.6 32 Norte 63 Noroeste 4.8 -- -- 92
2018-02-01 04:00:00 12 12 Norte 40 Nordeste 0.2 -- -- 67
2018-02-01 03:00:00 12.4 9 Norte 43 Nordeste 0 -- -- 63
2018-02-01 02:00:00 12 10 Nordeste 40 Norte 0 -- -- 60
2018-02-01 01:00:00 12.4 13 Norte 48 Norte 0 -- -- 59
2018-02-01 00:00:00 11.8 13 Norte 35 Noroeste 0 -- -- 61
2018-01-31 23:00:00 11.8 10 Norte 48 Norte 0.4 -- -- 69
2018-01-31 22:00:00 12 27 Norte 64 Noroeste 2.4 -- -- 71
2018-01-31 21:00:00 11.9 24 Norte 63 Norte 5 -- -- 81
2018-01-31 20:00:00 11.6 28 Norte 58 Norte 10.8 -- -- 90
2018-01-31 19:00:00 13.4 28 Norte 65 Noroeste 0 -- -- 67
2018-01-31 18:00:00 12.8 36 Norte 65 Noroeste 5 -- -- 74
2018-01-31 17:00:00 13.4 29 Norte 56 Noroeste 1.6 -- -- 72
2018-01-31 16:00:00 13.9 26 Norte 54 Noroeste 0 -- -- 70
2018-01-31 15:00:00 13.5 17 Norte 45 Norte 1.6 -- -- 75
2018-01-31 14:00:00 13.9 6 Noroeste 27 Sur 0.4 -- -- 71
2018-01-31 13:00:00 13.5 14 Sudoeste 39 Sudoeste 0.6 -- -- 68
2018-01-31 12:00:00 13.7 11 Este 39 Norte 0 -- -- 72
2018-01-31 11:00:00 12.7 16 Noroeste 35 Noroeste 0.8 -- -- 71
2018-01-31 10:00:00 14.5 15 Norte 36 Noroeste 0 -- -- 58
2018-01-31 09:00:00 13.3 8 Norte 32 Sudoeste 0 -- -- 59
2018-01-31 08:00:00 12.4 14 Oeste 36 Oeste 0 -- -- 51
2018-01-31 07:00:00 12.2 11 Noroeste 31 Noroeste 0 -- -- 44
2018-01-31 06:00:00 12.3 7 Noroeste 26 Oeste 0 -- -- 45
2018-01-31 05:00:00 11.5 13 Noroeste 36 Noroeste 0 -- -- 56
2018-01-31 04:00:00 11.5 8 Nordeste 35 Noroeste 0 -- -- 59
2018-01-31 03:00:00 11.2 12 Noroeste 31 Norte 0 -- -- 62
2018-01-31 02:00:00 11.7 16 Norte 32 Norte 0 -- -- 59
2018-01-31 01:00:00 10.9 8 Norte 28 Nordeste 0 -- -- 74
2018-01-31 00:00:00 10.8 3 Norte 21 Este 0 -- -- 68
2018-01-30 23:00:00 10.3 5 Norte 15 Sur 0 -- -- 66
2018-01-30 22:00:00 10.7 4 Sur 17 Este 0 -- -- 72
2018-01-30 21:00:00 11.4 5 Noroeste 38 Noroeste 0 -- -- 68
2018-01-30 20:00:00 12 9 Sur 30 Norte 0 -- -- 64
2018-01-30 19:00:00 12.3 17 Norte 40 Norte 0 -- -- 61
2018-01-30 18:00:00 12.9 14 Norte 34 Noroeste 0 -- -- 60
2018-01-30 17:00:00 13.3 9 Este 32 Este 0 -- -- 60
2018-01-30 16:00:00 12.7 19 Este 42 Nordeste 0 -- -- 63
2018-01-30 15:00:00 13.2 3 Sur 21 Este 0.2 -- -- 69
2018-01-30 14:00:00 13.8 5 Nordeste 22 Norte 0.2 -- -- 68
2018-01-30 13:00:00 12.6 11 Noroeste 30 Noroeste 2.4 -- -- 79
2018-01-30 12:00:00 12.5 12 Noroeste 44 Noroeste 0.4 -- -- 72
2018-01-30 11:00:00 13.8 16 Norte 48 Noroeste 0.2 -- -- 58
2018-01-30 10:00:00 13.3 4 Sudoeste 28 Noroeste 0 -- -- 64
2018-01-30 09:00:00 12.3 10 Nordeste 31 Noroeste 0 -- -- 67
2018-01-30 08:00:00 10.5 8 Oeste 22 Oeste 0 -- -- 74
2018-01-30 07:00:00 9.8 9 Noroeste 18 Noroeste 0 -- -- 76
2018-01-30 06:00:00 9.9 12 Noroeste 18 Noroeste 0 -- -- 73
2018-01-30 05:00:00 10.4 6 Noroeste 19 Noroeste 0 -- -- 59
2018-01-30 04:00:00 10.8 6 Noroeste 28 Noroeste 0 -- -- 48
2018-01-30 03:00:00 9.7 4 Norte 17 Noroeste 0 -- -- 54
2018-01-30 02:00:00 10.5 11 Oeste 32 Noroeste 0 -- -- 52
2018-01-30 01:00:00 10 7 Noroeste 31 Noroeste 0 -- -- 49
2018-01-30 00:00:00 10.4 13 Noroeste 44 Noroeste 0 -- -- 55
2018-01-29 23:00:00 10.3 18 Norte 37 Noroeste 0 -- -- 60
2018-01-29 22:00:00 10.6 10 Sudeste 36 Noroeste 0 -- -- 61
2018-01-29 21:00:00 10.4 13 Norte 40 Noroeste 0 -- -- 64
2018-01-29 20:00:00 10.3 18 Norte 55 Noroeste 0.2 -- -- 66
2018-01-29 19:00:00 9.3 19 Norte 55 Norte 3.4 -- -- 79
2018-01-29 18:00:00 9.3 31 Norte 52 Norte 2 -- -- 76
2018-01-29 17:00:00 11.4 17 Norte 44 Norte 0.8 -- -- 62
2018-01-29 16:00:00 13.6 25 Norte 45 Norte 0 -- -- 56
2018-01-29 15:00:00 13.5 15 Norte 60 Norte 0.2 -- -- 62
2018-01-29 14:00:00 10.1 28 Norte 54 Norte 5.6 -- -- 78
2018-01-29 13:00:00 11 21 Norte 55 Norte 4.6 -- -- 77
2018-01-29 12:00:00 11.3 29 Noroeste 53 Norte 2.4 -- -- 74
2018-01-29 11:00:00 10.6 15 Norte 57 Noroeste 5 -- -- 79
2018-01-29 10:00:00 11.8 24 Noroeste 44 Noroeste 2 -- -- 69
2018-01-29 09:00:00 11.8 18 Norte 32 Noroeste 2.4 -- -- 71
2018-01-29 08:00:00 12.2 13 Noroeste 33 Noroeste 0 -- -- 61
2018-01-29 07:00:00 12.2 13 Noroeste 25 Noroeste 0 -- -- 59
2018-01-29 06:00:00 11.6 13 Noroeste 31 Noroeste 0 -- -- 66
2018-01-29 05:00:00 12.3 17 Oeste 44 Noroeste 0 -- -- 56
2018-01-29 04:00:00 12.4 10 Oeste 46 Norte 0 -- -- 54
2018-01-29 03:00:00 10 5 Noroeste 21 Sur 0 -- -- 61
2018-01-29 02:00:00 11.4 9 Sudoeste 32 Este 0 -- -- 56
2018-01-29 01:00:00 11.1 7 Oeste 33 Este 0 -- -- 56
2018-01-29 00:00:00 12.1 13 Nordeste 40 Norte 0 -- -- 47
2018-01-28 23:00:00 11.6 23 Nordeste 34 Nordeste 0 -- -- 57
2018-01-28 22:00:00 11.9 17 Nordeste 30 Nordeste 0 -- -- 58
2018-01-28 21:00:00 12.3 7 Este 23 Norte 0 -- -- 57
2018-01-28 20:00:00 12.3 6 Este 21 Nordeste 0 -- -- 58
2018-01-28 19:00:00 12.3 12 Este 25 Este 0 -- -- 61
2018-01-28 18:00:00 13 9 Nordeste 35 Este 0 -- -- 57
2018-01-28 17:00:00 13.8 11 Este 41 Este 0 -- -- 55
2018-01-28 16:00:00 14.2 15 Nordeste 49 Este 0 -- -- 54
2018-01-28 15:00:00 13.3 14 Nordeste 49 Norte 0.2 -- -- 72
2018-01-28 14:00:00 15.7 15 Nordeste 67 Nordeste 0 -- -- 49
2018-01-28 13:00:00 17.1 14 Nordeste 58 Norte 0 -- -- 43
2018-01-28 12:00:00 15.8 20 Este 50 Este 0 -- -- 55
2018-01-28 11:00:00 14.2 22 Este 53 Este 0 -- -- 61
2018-01-28 10:00:00 13.5 14 Nordeste 49 Nordeste 0 -- -- 67
2018-01-28 09:00:00 12.9 14 Este 44 Nordeste 0 -- -- 74
2018-01-28 08:00:00 13.3 19 Nordeste 55 Nordeste 0 -- -- 69
2018-01-28 07:00:00 13.1 18 Este 59 Nordeste 0 -- -- 66
2018-01-28 06:00:00 12.7 18 Nordeste 51 Nordeste 0 -- -- 61
2018-01-28 05:00:00 13 25 Nordeste 45 Nordeste 0 -- -- 64
2018-01-28 04:00:00 12.7 13 Este 62 Este 0 -- -- 64
2018-01-28 03:00:00 12.7 35 Este 55 Este 0 -- -- 64
2018-01-28 02:00:00 12.8 28 Este 48 Nordeste 0 -- -- 63
2018-01-28 01:00:00 13.2 28 Este 57 Nordeste 0 -- -- 66
2018-01-28 00:00:00 13.3 18 Nordeste 55 Este 0 -- -- 64
2018-01-27 23:00:00 12.8 24 Este 47 Este 0 -- -- 62
2018-01-27 22:00:00 13.2 22 Este 49 Este 0 -- -- 70
2018-01-27 21:00:00 13.3 21 Nordeste 45 Nordeste 0 -- -- 64
2018-01-27 20:00:00 13.5 23 Nordeste 48 Nordeste 0 -- -- 64
2018-01-27 19:00:00 13.3 30 Nordeste 51 Nordeste 0 -- -- 62
2018-01-27 18:00:00 13.5 23 Nordeste 58 Nordeste 0 -- -- 57
2018-01-27 17:00:00 14.6 22 Este 57 Este 0 -- -- 55
2018-01-27 16:00:00 15.2 36 Este 59 Este 0 -- -- 52
2018-01-27 15:00:00 15.8 33 Este 63 Este 0 -- -- 52
2018-01-27 14:00:00 16 34 Este 53 Este 0 -- -- 53
2018-01-27 13:00:00 15.4 23 Este 43 Este 0 -- -- 61
2018-01-27 12:00:00 14.9 20 Este 42 Este 0 -- -- 59
2018-01-27 11:00:00 14 23 Este 43 Este 0 -- -- 60
2018-01-27 10:00:00 13.4 14 Nordeste 35 Norte 0 -- -- 59
2018-01-27 09:00:00 12.5 15 Nordeste 33 Nordeste 0 -- -- 60
2018-01-27 08:00:00 12.3 10 Nordeste 31 Este 0 -- -- 63
2018-01-27 07:00:00 12.4 8 Nordeste 28 Nordeste 0 -- -- 63
2018-01-27 06:00:00 12.1 8 Norte 30 Este 0 -- -- 58
2018-01-27 05:00:00 11.9 9 Nordeste 33 Norte 0 -- -- 59
2018-01-27 04:00:00 11.6 14 Nordeste 29 Nordeste 0 -- -- 57
2018-01-27 03:00:00 12.1 9 Norte 37 Norte 0 -- -- 67
2018-01-27 02:00:00 12 13 Nordeste 36 Nordeste 0 -- -- 64
2018-01-27 01:00:00 12.6 11 Nordeste 34 Nordeste 0 -- -- 63
2018-01-27 00:00:00 12.4 15 Nordeste 38 Nordeste 0 -- -- 70
2018-01-26 23:00:00 12.4 12 Este 28 Este 0 -- -- 73
2018-01-26 22:00:00 13 9 Nordeste 28 Este 0 -- -- 65
2018-01-26 21:00:00 12.9 12 Nordeste 36 Nordeste 0 -- -- 70
2018-01-26 20:00:00 12.7 14 Nordeste 37 Este 0 -- -- 72
2018-01-26 19:00:00 13.3 8 Nordeste 35 Norte 0 -- -- 64
2018-01-26 18:00:00 12.9 16 Nordeste 40 Este 0 -- -- 69
2018-01-26 17:00:00 14.3 20 Nordeste 56 Este 0 -- -- 63
2018-01-26 16:00:00 16.7 31 Este 66 Este 0 -- -- 58
2018-01-26 15:00:00 16.5 42 Este 70 Este 0 -- -- 55
2018-01-26 14:00:00 16.3 45 Este 70 Este 0 -- -- 58
2018-01-26 13:00:00 16.7 42 Este 69 Este 0 -- -- 58
2018-01-26 12:00:00 16.7 24 Este 42 Este 0 -- -- 63
2018-01-26 11:00:00 14.7 16 Este 30 Sudeste 0.2 -- -- 86
2018-01-26 10:00:00 13.8 8 Este 24 Este 0 -- -- 90
2018-01-26 09:00:00 13.9 16 Este 33 Este 0 -- -- 80
2018-01-26 08:00:00 14.5 10 Este 26 Noroeste 0 -- -- 67
2018-01-26 07:00:00 13.8 12 Nordeste 36 Norte 0 -- -- 64
2018-01-26 06:00:00 13 13 Norte 38 Norte 0 -- -- 64
2018-01-26 05:00:00 11.5 4 Norte 19 Norte 0 -- -- 70
2018-01-26 04:00:00 11.3 6 Noroeste 17 Noroeste 0 -- -- 66
2018-01-26 03:00:00 11.4 9 Noroeste 21 Noroeste 0 -- -- 67
2018-01-26 02:00:00 10.8 14 Norte 19 Norte 0 -- -- 66
2018-01-26 01:00:00 11.1 8 Norte 28 Norte 0 -- -- 67
2018-01-26 00:00:00 11 13 Norte 22 Norte 0 -- -- 68
2018-01-25 23:00:00 10.6 9 Norte 20 Noroeste 0 -- -- 74
2018-01-25 22:00:00 11.1 9 Noroeste 23 Oeste 0 -- -- 75
2018-01-25 21:00:00 11.3 9 Noroeste 17 Noroeste 0 -- -- 75
2018-01-25 20:00:00 12.2 11 Noroeste 19 Oeste 0 -- -- 76
2018-01-25 19:00:00 12.9 9 Noroeste 21 Oeste 0 -- -- 76
2018-01-25 18:00:00 13.8 4 Sudoeste 25 Este 0 -- -- 75
2018-01-25 17:00:00 14.3 18 Este 27 Este 0 -- -- 73
2018-01-25 16:00:00 14.8 21 Este 31 Este 0 -- -- 73
2018-01-25 15:00:00 15.4 19 Este 31 Este 0 -- -- 69
2018-01-25 14:00:00 15.6 21 Este 33 Este 0 -- -- 69
2018-01-25 13:00:00 16.1 19 Este 30 Sudeste 0 -- -- 68
2018-01-25 12:00:00 16.7 17 Este 31 Sudeste 0 -- -- 64
2018-01-25 11:00:00 16.1 16 Este 26 Sudeste 0 -- -- 66
2018-01-25 10:00:00 15.2 8 Sudeste 15 Este 0 -- -- 69
2018-01-25 09:00:00 13.1 4 Sur 13 Norte 0 -- -- 80
2018-01-25 08:00:00 10.2 6 Norte 15 Nordeste 0 -- -- 86
2018-01-25 07:00:00 9.8 8 Norte 14 Norte 0 -- -- 89
2018-01-25 06:00:00 9.7 8 Norte 12 Noroeste 0 -- -- 90
2018-01-25 05:00:00 9.6 4 Norte 9 Norte 0 -- -- 92
2018-01-25 04:00:00 9.7 3 Noroeste 9 Norte 0 -- -- 92
2018-01-25 03:00:00 9.8 3 Noroeste 11 Noroeste 0 -- -- 91
2018-01-25 02:00:00 10.8 3 Noroeste 9 Noroeste 0 -- -- 89
2018-01-25 01:00:00 11 4 Nordeste 10 Noroeste 0 -- -- 87
2018-01-25 00:00:00 11.7 8 Noroeste 10 Noroeste 0 -- -- 84
2018-01-24 23:00:00 12.6 6 Noroeste 12 Norte 0 -- -- 83
2018-01-24 22:00:00 13.2 4 Noroeste 9 Norte 0 -- -- 82
2018-01-24 21:00:00 13.4 7 Este 17 Este 0 -- -- 85
2018-01-24 20:00:00 13.4 8 Este 19 Este 0 -- -- 86
2018-01-24 19:00:00 13.6 6 Este 19 Este 0 -- -- 86
2018-01-24 18:00:00 14 13 Este 20 Este 0 -- -- 84
2018-01-24 17:00:00 14.6 13 Este 21 Este 0 -- -- 82
2018-01-24 16:00:00 16 13 Este 21 Este 0 -- -- 75
2018-01-24 15:00:00 16 12 Este 23 Sudeste 0 -- -- 75
2018-01-24 14:00:00 16.4 14 Sudeste 23 Este 0 -- -- 73
2018-01-24 13:00:00 16.2 14 Sudeste 23 Sudeste 0 -- -- 72
2018-01-24 12:00:00 16.3 15 Sudeste 28 Este 0 -- -- 71
2018-01-24 11:00:00 16.2 11 Este 23 Este 0 -- -- 71
2018-01-24 10:00:00 15.3 13 Este 19 Este 0 -- -- 74
2018-01-24 09:00:00 12.6 5 Nordeste 11 Este 0 -- -- 88
2018-01-24 08:00:00 10.1 6 Noroeste 11 Norte 0 -- -- 91
2018-01-24 07:00:00 10.2 5 Norte 10 Este 0 -- -- 91
2018-01-24 06:00:00 10.3 6 Norte 10 Norte 0 -- -- 92
2018-01-24 05:00:00 10.6 5 Norte 11 Nordeste 0 -- -- 91
2018-01-24 04:00:00 10.8 5 Noroeste 13 Noroeste 0 -- -- 92
2018-01-24 03:00:00 10.7 6 Norte 10 Noroeste 0 -- -- 91
2018-01-24 02:00:00 10.9 4 Norte 9 Nordeste 0 -- -- 92
2018-01-24 01:00:00 11 5 Norte 10 Nordeste 0 -- -- 93
2018-01-24 00:00:00 10.6 2 Noroeste 7 Noroeste 0 -- -- 92
2018-01-23 23:00:00 11.1 7 Noroeste 12 Noroeste 0 -- -- 90
2018-01-23 22:00:00 12 8 Noroeste 10 Oeste 0 -- -- 88
2018-01-23 21:00:00 13.1 2 Oeste 12 Este 0 -- -- 87
2018-01-23 20:00:00 13.5 6 Este 15 Este 0 -- -- 89
2018-01-23 19:00:00 13.8 10 Este 14 Este 0 -- -- 88
2018-01-23 18:00:00 14.2 9 Este 17 Este 0 -- -- 86
2018-01-23 17:00:00 15.4 9 Este 21 Sudeste 0 -- -- 79
2018-01-23 16:00:00 16.1 11 Este 22 Este 0 -- -- 75
2018-01-23 15:00:00 16.3 13 Este 24 Sudeste 0 -- -- 73
2018-01-23 14:00:00 16.7 14 Este 24 Este 0 -- -- 71
2018-01-23 13:00:00 16.9 15 Este 24 Este 0 -- -- 70
2018-01-23 12:00:00 17 11 Este 20 Este 0 -- -- 69
2018-01-23 11:00:00 16.3 14 Este 24 Este 0 -- -- 73
2018-01-23 10:00:00 15.2 14 Este 20 Este 0 -- -- 73
2018-01-23 09:00:00 12.8 7 Nordeste 18 Norte 0 -- -- 76
2018-01-23 08:00:00 10.9 10 Norte 18 Norte 0 -- -- 73
2018-01-23 07:00:00 11.4 11 Norte 20 Norte 0 -- -- 74
2018-01-23 06:00:00 11.2 12 Norte 23 Norte 0 -- -- 73
2018-01-23 05:00:00 11.9 9 Norte 23 Norte 0 -- -- 77
2018-01-23 04:00:00 11.5 8 Norte 17 Norte 0 -- -- 79
2018-01-23 03:00:00 11 10 Noroeste 18 Noroeste 0 -- -- 82
2018-01-23 02:00:00 11.2 12 Noroeste 15 Noroeste 0 -- -- 84
2018-01-23 01:00:00 11.2 10 Noroeste 12 Noroeste 0 -- -- 82
2018-01-23 00:00:00 12 6 Norte 19 Oeste 0 -- -- 80
2018-01-22 23:00:00 12.5 11 Noroeste 16 Oeste 0 -- -- 84
2018-01-22 22:00:00 13.5 6 Oeste 10 Oeste 0 -- -- 83
2018-01-22 21:00:00 14 3 Sudeste 17 Sudeste 0 -- -- 83
2018-01-22 20:00:00 14.4 7 Sudeste 22 Este 0 -- -- 87
2018-01-22 19:00:00 14.6 10 Este 19 Este 0 -- -- 87
2018-01-22 18:00:00 15.2 9 Este 15 Sudeste 0 -- -- 84
2018-01-22 17:00:00 15.4 9 Sudeste 20 Este 0 -- -- 84
2018-01-22 16:00:00 16.4 12 Este 18 Este 0 -- -- 80
2018-01-22 15:00:00 17.4 12 Sudeste 18 Este 0 -- -- 75
2018-01-22 14:00:00 18 9 Este 18 Este 0 -- -- 74
2018-01-22 13:00:00 18.3 8 Este 18 Este 0 -- -- 72
2018-01-22 12:00:00 18.5 10 Este 18 Sudeste 0 -- -- 70
2018-01-22 11:00:00 18.2 8 Este 15 Este 0 -- -- 67
2018-01-22 10:00:00 18.4 5 Sudeste 8 Sudeste 0 -- -- 42
2018-01-22 09:00:00 17.4 0 Calma 16 Norte 0 -- -- 20
2018-01-22 08:00:00 13.4 13 Norte 21 Norte 0 -- -- 21
2018-01-22 07:00:00 13.4 16 Norte 23 Norte 0 -- -- 21
2018-01-22 06:00:00 12.3 9 Norte 17 Norte 0 -- -- 25
2018-01-22 05:00:00 10.2 2 Nordeste 6 Noroeste 0 -- -- 71
2018-01-22 04:00:00 9.5 4 Noroeste 12 Oeste 0 -- -- 71
2018-01-22 03:00:00 11.3 6 Norte 12 Norte 0 -- -- 83
2018-01-22 02:00:00 11.1 5 Norte 11 Nordeste 0 -- -- 88
2018-01-22 01:00:00 11.2 6 Norte 10 Noroeste 0 -- -- 91
2018-01-22 00:00:00 11.4 5 Noroeste 10 Noroeste 0 -- -- 89